Campus, Illinois
Current Conditions -  °F | °C
As of 2:15 PM on Sunday 25 Jan 2015 (Local Time) from KPNT Reporting Station
Light Snow Light Snow  
Wind Chill: 20°   Ceiling: 800
Heat Index: 33°   Visibility: 3mi
Dew Point: 32°   Wind: 25mph
Humidity: 95%   Direction: 30°NNE
Pressure: 29.75"   Gusts: 35mph
Location:  41.02°N, 88.31°W
Report Text: KPNT 252015Z AUTO 03022G30KT 3SM -SN BKN008 OVC013 01/00 A2975 RMK AO2 T00070000
Loading
Personal Weather Stations






























Interactive Weather Map New forecast layout! Learn more

10-Day Weather Forecast

Advertisements
Track Severe Weather on mobile